RYR784B GMFO-LFBO
Flight info
| Callsign | RYR784B |
|---|---|
| Flight time | N/A |
| Altitude | 38000 |
| Route | DIGEX DCT AMR N860 VLC L34 CASIM N608 GIROM DCT ASPET |
| Aircraft | B38M/M-SADE3FGILRWY/SB1 |
Departure
| Time | 2026-04-26 16:07 |
|---|---|
| Airport | Oujda Angads Airport (GMFO) |
Arrival
| Time | N/A |
|---|---|
| Airport | Toulouse-Blagnac Airport (LFBO) |
| Time | Latitude | Longitude | Altitude | Speed | Heading |
|---|---|---|---|---|---|
| 2026-04-26 15:39 | 34.78618 | -1.93921 | 1528 ft | 0 kts | 298° |
| 2026-04-26 15:59 | 34.78612 | -1.93908 | 1524 ft | 4 kts | 297° |
| 2026-04-26 15:59 | 34.78600 | -1.93879 | 1526 ft | 4 kts | 296° |
| 2026-04-26 16:00 | 34.78589 | -1.93849 | 1520 ft | 4 kts | 292° |
| 2026-04-26 16:00 | 34.78580 | -1.93818 | 1524 ft | 4 kts | 279° |
| 2026-04-26 16:00 | 34.78582 | -1.93789 | 1526 ft | 3 kts | 236° |
| 2026-04-26 16:00 | 34.78584 | -1.93785 | 1521 ft | 0 kts | 230° |
| 2026-04-26 16:02 | 34.78580 | -1.93791 | 1523 ft | 3 kts | 230° |
| 2026-04-26 16:03 | 34.78546 | -1.93807 | 1528 ft | 4 kts | 166° |
| 2026-04-26 16:03 | 34.78511 | -1.93775 | 1527 ft | 10 kts | 132° |
| 2026-04-26 16:03 | 34.78456 | -1.93699 | 1525 ft | 13 kts | 132° |
| 2026-04-26 16:03 | 34.78384 | -1.93662 | 1525 ft | 12 kts | 215° |
| 2026-04-26 16:04 | 34.78337 | -1.93746 | 1524 ft | 13 kts | 237° |
| 2026-04-26 16:04 | 34.78291 | -1.93847 | 1524 ft | 14 kts | 246° |
| 2026-04-26 16:04 | 34.78253 | -1.93959 | 1527 ft | 13 kts | 249° |
| 2026-04-26 16:04 | 34.78194 | -1.94008 | 1524 ft | 11 kts | 168° |
| 2026-04-26 16:05 | 34.78136 | -1.93945 | 1528 ft | 12 kts | 132° |
| 2026-04-26 16:05 | 34.78076 | -1.93863 | 1527 ft | 14 kts | 130° |
| 2026-04-26 16:05 | 34.78014 | -1.93772 | 1525 ft | 11 kts | 101° |
| 2026-04-26 16:05 | 34.78029 | -1.93721 | 1523 ft | 0 kts | 58° |
| 2026-04-26 16:06 | 34.78037 | -1.93704 | 1527 ft | 20 kts | 58° |
| 2026-04-26 16:06 | 34.78263 | -1.93276 | 1525 ft | 98 kts | 58° |
| 2026-04-26 16:06 | 34.78752 | -1.92341 | 1529 ft | 161 kts | 61° |
| 2026-04-26 16:06 | 34.79375 | -1.91042 | 1867 ft | 194 kts | 60° |
| 2026-04-26 16:07 | 34.79830 | -1.89377 | 2439 ft | 220 kts | 77° |
| 2026-04-26 16:07 | 34.79743 | -1.87532 | 3535 ft | 218 kts | 105° |
| 2026-04-26 16:07 | 34.78949 | -1.85927 | 4380 ft | 239 kts | 136° |
| 2026-04-26 16:07 | 34.77279 | -1.85061 | 4462 ft | 291 kts | 172° |
| 2026-04-26 16:08 | 34.75287 | -1.85588 | 5420 ft | 299 kts | 213° |
| 2026-04-26 16:08 | 34.73994 | -1.87445 | 7021 ft | 283 kts | 244° |
| 2026-04-26 16:08 | 34.73544 | -1.89722 | 8412 ft | 277 kts | 267° |
| 2026-04-26 16:08 | 34.73553 | -1.92077 | 9418 ft | 281 kts | 265° |
| 2026-04-26 16:09 | 34.73282 | -1.94426 | 10433 ft | 283 kts | 259° |
| 2026-04-26 16:09 | 34.72864 | -1.96839 | 10970 ft | 301 kts | 256° |
| 2026-04-26 16:09 | 34.72310 | -1.99356 | 11568 ft | 315 kts | 254° |
| 2026-04-26 16:09 | 34.71661 | -2.01933 | 12365 ft | 320 kts | 252° |
| 2026-04-26 16:10 | 34.70963 | -2.04514 | 13256 ft | 324 kts | 252° |
| 2026-04-26 16:10 | 34.70231 | -2.07122 | 14064 ft | 328 kts | 251° |
| 2026-04-26 16:10 | 34.69732 | -2.09828 | 14786 ft | 331 kts | 269° |
| 2026-04-26 16:10 | 34.70052 | -2.12598 | 15533 ft | 335 kts | 287° |
| 2026-04-26 16:11 | 34.70955 | -2.15227 | 16212 ft | 340 kts | 291° |
| 2026-04-26 16:11 | 34.71769 | -2.17937 | 16902 ft | 343 kts | 290° |
| 2026-04-26 16:11 | 34.72609 | -2.20670 | 17601 ft | 347 kts | 290° |
| 2026-04-26 16:11 | 34.73474 | -2.23432 | 18284 ft | 351 kts | 291° |
| 2026-04-26 16:12 | 34.74359 | -2.26220 | 18859 ft | 355 kts | 291° |
| 2026-04-26 16:12 | 34.75257 | -2.29029 | 19453 ft | 358 kts | 291° |
| 2026-04-26 16:12 | 34.77083 | -2.34722 | 20614 ft | 364 kts | 291° |
| 2026-04-26 16:13 | 34.78008 | -2.37609 | 21167 ft | 368 kts | 291° |
| 2026-04-26 16:13 | 34.78967 | -2.40501 | 21733 ft | 371 kts | 296° |
| 2026-04-26 16:13 | 34.80549 | -2.42962 | 22317 ft | 373 kts | 320° |
| 2026-04-26 16:13 | 34.82850 | -2.44434 | 22819 ft | 380 kts | 344° |
| 2026-04-26 16:14 | 34.85496 | -2.44628 | 23369 ft | 387 kts | 7° |
| 2026-04-26 16:14 | 34.88036 | -2.43500 | 23814 ft | 396 kts | 30° |
| 2026-04-26 16:14 | 34.92776 | -2.40019 | 24648 ft | 401 kts | 24° |
| 2026-04-26 16:15 | 34.95286 | -2.38528 | 25095 ft | 403 kts | 25° |
| 2026-04-26 16:15 | 34.97760 | -2.36882 | 25528 ft | 407 kts | 28° |
| 2026-04-26 16:15 | 35.00178 | -2.35054 | 25950 ft | 409 kts | 27° |
| 2026-04-26 16:16 | 35.05615 | -2.33497 | 26729 ft | 406 kts | 353° |
| 2026-04-26 16:16 | 35.08376 | -2.34184 | 27082 ft | 407 kts | 338° |
| 2026-04-26 16:16 | 35.10959 | -2.35595 | 27478 ft | 408 kts | 333° |
| 2026-04-26 16:16 | 35.13649 | -2.36734 | 27855 ft | 412 kts | 347° |
| 2026-04-26 16:17 | 35.16512 | -2.37066 | 28262 ft | 416 kts | 357° |
| 2026-04-26 16:17 | 35.19425 | -2.37080 | 28611 ft | 420 kts | 359° |
| 2026-04-26 16:17 | 35.22355 | -2.36990 | 28996 ft | 422 kts | 0° |
| 2026-04-26 16:17 | 35.25300 | -2.36845 | 29358 ft | 425 kts | 0° |
| 2026-04-26 16:18 | 35.28265 | -2.36672 | 29719 ft | 428 kts | 1° |
| 2026-04-26 16:18 | 35.34242 | -2.36281 | 30381 ft | 432 kts | 1° |
| 2026-04-26 16:19 | 35.40272 | -2.35871 | 30999 ft | 436 kts | 1° |
| 2026-04-26 16:19 | 35.43308 | -2.35664 | 31304 ft | 438 kts | 1° |
| 2026-04-26 16:19 | 35.48382 | -2.35318 | 31793 ft | 441 kts | 1° |
| 2026-04-26 16:20 | 35.52490 | -2.35037 | 32190 ft | 443 kts | 1° |
| 2026-04-26 16:20 | 35.58626 | -2.34617 | 32763 ft | 446 kts | 1° |
| 2026-04-26 16:20 | 35.61720 | -2.34405 | 33077 ft | 447 kts | 1° |
| 2026-04-26 16:21 | 35.64829 | -2.34192 | 33474 ft | 446 kts | 1° |
| 2026-04-26 16:21 | 35.67931 | -2.33979 | 33866 ft | 445 kts | 1° |
| 2026-04-26 16:21 | 35.71020 | -2.33767 | 34225 ft | 444 kts | 1° |
| 2026-04-26 16:21 | 35.74104 | -2.33555 | 34514 ft | 444 kts | 1° |
| 2026-04-26 16:22 | 35.77192 | -2.33343 | 34781 ft | 445 kts | 1° |
| 2026-04-26 16:22 | 35.80278 | -2.33130 | 35057 ft | 445 kts | 1° |
| 2026-04-26 16:22 | 35.83373 | -2.32917 | 35322 ft | 445 kts | 1° |
| 2026-04-26 16:22 | 35.86462 | -2.32704 | 35585 ft | 445 kts | 0° |
| 2026-04-26 16:23 | 35.89551 | -2.32491 | 35839 ft | 445 kts | 0° |
| 2026-04-26 16:23 | 35.92648 | -2.32278 | 36086 ft | 446 kts | 1° |
| 2026-04-26 16:23 | 35.95742 | -2.32064 | 36318 ft | 446 kts | 0° |
| 2026-04-26 16:23 | 35.98841 | -2.31850 | 36560 ft | 446 kts | 0° |
| 2026-04-26 16:24 | 36.01936 | -2.31636 | 36781 ft | 446 kts | 0° |
| 2026-04-26 16:24 | 36.05042 | -2.31420 | 37005 ft | 446 kts | 0° |
| 2026-04-26 16:24 | 36.08138 | -2.31206 | 37228 ft | 446 kts | 0° |
| 2026-04-26 16:24 | 36.11243 | -2.30991 | 37454 ft | 447 kts | 0° |
| 2026-04-26 16:25 | 36.14342 | -2.30775 | 37660 ft | 447 kts | 0° |
| 2026-04-26 16:25 | 36.17450 | -2.30559 | 37872 ft | 446 kts | 0° |
| 2026-04-26 16:25 | 36.20549 | -2.30344 | 38045 ft | 447 kts | 0° |
| 2026-04-26 16:25 | 36.23652 | -2.30128 | 38066 ft | 447 kts | 0° |
| 2026-04-26 16:26 | 36.28799 | -2.29769 | 38059 ft | 445 kts | 0° |
| 2026-04-26 16:26 | 36.36026 | -2.29264 | 38060 ft | 445 kts | 0° |